Time;durP1;ratioP1;P1;durP2;ratioP2;P2;SDS_P1;SDS_P2;PMS_P1;PMS_P2;Temp;Humidity;BMP_temperature;BMP_pressure;BME280_temperature;BME280_humidity;BME280_pressure;Samples;Min_cycle;Max_cycle;Signal;HPM_P1;HPM_P2
2022/04/15 00:01:17;;;;;;;21.50;12.82;;;12.40;95.30;;;;;;5053193;28;20457;-71
2022/04/15 00:03:43;;;;;;;28.27;13.32;;;12.40;95.40;;;;;;5052529;28;20029;-70
2022/04/15 00:06:10;;;;;;;27.58;13.40;;;12.40;95.40;;;;;;5052520;28;20021;-70
2022/04/15 00:08:36;;;;;;;27.92;13.38;;;12.50;95.30;;;;;;5052665;28;20021;-71
2022/04/15 00:11:08;;;;;;;28.05;12.13;;;12.50;95.40;;;;;;5052204;28;20028;-71
2022/04/15 00:13:35;;;;;;;23.40;10.95;;;12.40;95.40;;;;;;5052532;28;20021;-71
2022/04/15 00:16:06;;;;;;;23.85;10.43;;;12.40;95.40;;;;;;5052275;28;20025;-71
2022/04/15 00:18:33;;;;;;;27.48;12.55;;;12.30;95.30;;;;;;5052205;28;20033;-71
2022/04/15 00:20:59;;;;;;;26.08;10.90;;;12.30;95.30;;;;;;5052234;28;20047;-71
2022/04/15 00:23:25;;;;;;;23.48;11.20;;;12.30;95.50;;;;;;5052113;28;20021;-71
2022/04/15 00:25:52;;;;;;;20.10;10.45;;;12.30;95.30;;;;;;5052031;28;20024;-71
2022/04/15 00:28:18;;;;;;;26.60;11.10;;;12.30;95.30;;;;;;5052396;28;20036;-70
2022/04/15 00:30:44;;;;;;;23.73;10.75;;;12.40;95.20;;;;;;5049780;28;20040;-70
2022/04/15 00:33:10;;;;;;;20.65;10.07;;;12.30;95.30;;;;;;5051947;28;20028;-71
2022/04/15 00:35:35;;;;;;;26.27;11.35;;;12.40;95.20;;;;;;5051655;28;20404;-70
2022/04/15 00:38:01;;;;;;;26.02;10.75;;;12.50;95.20;;;;;;5051740;28;20037;-71
2022/04/15 00:40:27;;;;;;;26.20;11.93;;;12.40;95.10;;;;;;5052196;28;20029;-70
2022/04/15 00:42:52;;;;;;;17.63;10.23;;;12.30;95.10;;;;;;5050592;28;20037;-71
2022/04/15 00:45:18;;;;;;;22.35;11.32;;;12.30;95.20;;;;;;5051975;28;20029;-69
2022/04/15 00:47:43;;;;;;;23.02;10.52;;;12.20;95.20;;;;;;5051925;28;20454;-70
2022/04/15 00:50:09;;;;;;;24.08;10.65;;;12.20;95.10;;;;;;5051829;28;20036;-71
2022/04/15 00:52:39;;;;;;;16.83;9.70;;;12.20;95.20;;;;;;5052061;28;20021;-70
2022/04/15 00:55:06;;;;;;;19.75;9.65;;;12.10;95.20;;;;;;5051569;28;20037;-71
2022/04/15 00:57:37;;;;;;;21.27;9.65;;;12.20;95.20;;;;;;5051406;28;20200;-70
2022/04/15 01:00:05;;;;;;;21.08;9.27;;;12.30;95.20;;;;;;5051564;28;20655;-71
2022/04/15 01:02:33;;;;;;;16.13;7.93;;;12.20;95.20;;;;;;5051456;28;20037;-71
2022/04/15 01:05:00;;;;;;;15.03;8.23;;;12.10;95.20;;;;;;5051433;28;20043;-69
2022/04/15 01:07:29;;;;;;;17.85;7.60;;;12.00;95.40;;;;;;5050837;28;20254;-70
2022/04/15 01:09:55;;;;;;;17.52;7.68;;;11.90;95.50;;;;;;5051364;28;20021;-69
2022/04/15 01:12:22;;;;;;;11.82;6.38;;;11.90;95.50;;;;;;5050076;28;20120;-71
2022/04/15 01:14:48;;;;;;;14.20;6.57;;;12.00;95.40;;;;;;5051247;28;20450;-71
2022/04/15 01:17:14;;;;;;;12.07;6.00;;;12.00;95.30;;;;;;5051177;28;20044;-70
2022/04/15 01:19:41;;;;;;;12.82;5.78;;;11.90;95.20;;;;;;5051334;28;20108;-71
2022/04/15 01:22:14;;;;;;;9.57;6.22;;;11.90;95.30;;;;;;5051038;28;20086;-70
2022/04/15 01:24:40;;;;;;;10.75;6.25;;;12.00;95.20;;;;;;5050959;28;20525;-70
2022/04/15 01:27:09;;;;;;;9.63;6.05;;;12.00;95.20;;;;;;5050929;28;20040;-70
2022/04/15 01:29:39;;;;;;;13.95;6.35;;;12.00;95.00;;;;;;5049791;28;20021;-70
2022/04/15 01:32:07;;;;;;;14.65;6.25;;;12.10;95.10;;;;;;5051000;28;20025;-70
2022/04/15 01:34:33;;;;;;;15.73;6.47;;;12.20;94.90;;;;;;5051064;28;20025;-70
2022/04/15 01:37:00;;;;;;;12.70;6.45;;;12.20;94.80;;;;;;5050558;28;20208;-69
2022/04/15 01:39:31;;;;;;;15.40;6.47;;;12.20;94.90;;;;;;5050662;28;20029;-69
2022/04/15 01:41:57;;;;;;;18.25;6.75;;;12.10;94.90;;;;;;5050437;28;20060;-70
2022/04/15 01:44:23;;;;;;;11.35;6.38;;;12.10;94.80;;;;;;5050918;28;20119;-71
2022/04/15 01:46:49;;;;;;;13.35;6.47;;;12.10;94.80;;;;;;5050801;28;20123;-71
2022/04/15 01:49:14;;;;;;;14.00;6.40;;;12.20;94.70;;;;;;5051249;28;20486;-70
2022/04/15 01:51:40;;;;;;;9.63;6.05;;;12.10;94.70;;;;;;5050710;28;20021;-70
2022/04/15 01:54:06;;;;;;;11.38;6.20;;;12.10;94.70;;;;;;5050486;28;20053;-71
2022/04/15 01:56:31;;;;;;;21.13;7.05;;;12.10;94.70;;;;;;5050582;28;20059;-70
2022/04/15 01:58:57;;;;;;;10.80;6.07;;;12.10;94.60;;;;;;5049430;28;20278;-70
2022/04/15 02:01:22;;;;;;;7.65;5.88;;;12.10;94.70;;;;;;5050999;28;20025;-70
2022/04/15 02:03:48;;;;;;;12.95;5.95;;;12.10;94.90;;;;;;5050663;28;20043;-70
2022/04/15 02:06:13;;;;;;;12.30;5.65;;;11.90;94.60;;;;;;5049588;28;20344;-69
2022/04/15 02:08:40;;;;;;;14.85;5.30;;;11.80;94.70;;;;;;5050431;28;20032;-71
2022/04/15 02:11:06;;;;;;;10.90;5.30;;;11.60;94.60;;;;;;5050434;28;20025;-70
2022/04/15 02:13:31;;;;;;;10.15;4.95;;;11.60;94.70;;;;;;5050858;28;20035;-71
2022/04/15 02:15:57;;;;;;;7.70;4.20;;;11.50;94.50;;;;;;5050699;28;20029;-69
2022/04/15 02:18:26;;;;;;;10.00;4.65;;;11.40;94.70;;;;;;5050499;28;20132;-70
2022/04/15 02:20:52;;;;;;;8.80;4.97;;;11.40;94.80;;;;;;5049232;28;20029;-70
2022/04/15 02:23:17;;;;;;;8.77;4.68;;;11.60;94.70;;;;;;5050516;28;20037;-71
2022/04/15 02:25:43;;;;;;;9.18;4.13;;;11.60;94.50;;;;;;5050742;28;20608;-69
2022/04/15 02:28:08;;;;;;;9.88;4.78;;;11.50;94.50;;;;;;5050713;28;20036;-71
2022/04/15 02:30:34;;;;;;;8.10;4.53;;;11.60;94.50;;;;;;5050243;28;20060;-71
2022/04/15 02:32:59;;;;;;;7.80;4.20;;;11.60;94.40;;;;;;5050291;28;20033;-70
2022/04/15 02:35:25;;;;;;;7.10;4.35;;;11.70;94.40;;;;;;5050174;28;20021;-70
2022/04/15 02:37:50;;;;;;;7.95;4.20;;;11.70;94.40;;;;;;5049833;28;20048;-69
2022/04/15 02:40:16;;;;;;;7.78;4.38;;;11.80;94.30;;;;;;5050591;28;20048;-71
2022/04/15 02:42:42;;;;;;;7.40;4.75;;;11.70;94.30;;;;;;5049070;28;20062;-70
2022/04/15 02:45:08;;;;;;;7.32;4.18;;;11.70;94.40;;;;;;5050225;28;20502;-70
2022/04/15 02:47:34;;;;;;;8.10;4.53;;;11.70;94.60;;;;;;5049067;28;20036;-71
2022/04/15 02:49:59;;;;;;;6.72;4.47;;;11.70;94.40;;;;;;5050239;28;20032;-70
2022/04/15 02:52:25;;;;;;;8.65;4.82;;;11.70;94.30;;;;;;5050412;28;20075;-70
2022/04/15 02:54:50;;;;;;;7.43;3.90;;;11.70;94.30;;;;;;5053437;28;20120;-69
2022/04/15 02:57:16;;;;;;;10.00;4.40;;;11.60;94.20;;;;;;5053668;28;20021;-70
2022/04/15 02:59:42;;;;;;;6.13;4.18;;;11.60;94.10;;;;;;5053599;28;20037;-71
2022/04/15 03:02:07;;;;;;;8.65;4.18;;;11.70;94.00;;;;;;5053654;28;20037;-70
2022/04/15 03:04:33;;;;;;;7.93;3.75;;;11.60;93.90;;;;;;5054058;28;20067;-69
2022/04/15 03:06:58;;;;;;;10.20;4.60;;;11.60;93.90;;;;;;5053671;28;20525;-70
2022/04/15 03:09:25;;;;;;;5.47;3.63;;;11.60;93.80;;;;;;5053613;28;20029;-71
2022/04/15 03:11:50;;;;;;;9.82;4.55;;;11.60;93.70;;;;;;5053357;28;20170;-70
2022/04/15 03:14:17;;;;;;;10.50;5.43;;;11.60;93.70;;;;;;5052246;28;20036;-70
2022/04/15 03:16:44;;;;;;;9.18;5.70;;;11.60;93.70;;;;;;5053818;28;20228;-70
2022/04/15 03:19:09;;;;;;;10.30;5.75;;;11.60;93.70;;;;;;5053463;28;20128;-70
2022/04/15 03:21:36;;;;;;;9.18;5.95;;;11.50;93.70;;;;;;5053200;28;20108;-70
2022/04/15 03:24:02;;;;;;;13.68;6.72;;;11.50;93.60;;;;;;5053323;28;20336;-70
2022/04/15 03:26:28;;;;;;;12.93;6.95;;;11.50;93.80;;;;;;5053259;28;20076;-70
2022/04/15 03:28:53;;;;;;;9.68;6.75;;;11.50;93.80;;;;;;5053072;28;20470;-71
2022/04/15 03:31:19;;;;;;;10.25;6.88;;;11.60;93.70;;;;;;5053618;28;20047;-70
2022/04/15 03:33:46;;;;;;;12.98;7.35;;;11.60;93.70;;;;;;5053063;28;20060;-70
2022/04/15 03:36:12;;;;;;;14.48;7.45;;;11.50;93.60;;;;;;5052817;28;20049;-70
2022/04/15 03:38:38;;;;;;;11.88;8.45;;;11.50;93.80;;;;;;5052931;28;20124;-69
2022/04/15 03:41:07;;;;;;;13.77;9.25;;;11.40;94.00;;;;;;5053163;28;20350;-69
2022/04/15 03:43:33;;;;;;;15.95;9.13;;;11.40;94.00;;;;;;5053251;28;20132;-70
2022/04/15 03:45:59;;;;;;;15.20;9.50;;;11.40;94.20;;;;;;5052899;28;20128;-70
2022/04/15 03:48:25;;;;;;;13.43;9.10;;;11.40;94.30;;;;;;5052903;28;20053;-70
2022/04/15 03:50:51;;;;;;;13.23;8.60;;;11.30;94.30;;;;;;5052770;28;20022;-72
2022/04/15 03:53:17;;;;;;;11.55;8.20;;;11.10;94.60;;;;;;5052763;28;20447;-71
2022/04/15 03:55:42;;;;;;;13.43;8.25;;;11.00;94.70;;;;;;5053178;28;20036;-72
2022/04/15 03:58:08;;;;;;;11.98;7.93;;;10.90;94.90;;;;;;5052787;28;20436;-71
2022/04/15 04:00:34;;;;;;;16.55;8.95;;;10.90;95.20;;;;;;5052668;28;20116;-70
2022/04/15 04:02:59;;;;;;;15.95;9.13;;;11.10;94.90;;;;;;5052525;28;20029;-69
2022/04/15 04:05:25;;;;;;;13.07;7.63;;;11.20;94.80;;;;;;5052282;28;20040;-70
2022/04/15 04:07:51;;;;;;;12.43;7.90;;;11.20;94.70;;;;;;5052473;28;20021;-71
2022/04/15 04:10:17;;;;;;;12.15;8.52;;;11.10;94.70;;;;;;5053226;28;20032;-71
2022/04/15 04:12:44;;;;;;;10.02;6.30;;;11.20;94.70;;;;;;5052468;28;20248;-70
2022/04/15 04:15:12;;;;;;;13.80;7.60;;;11.10;94.90;;;;;;5052490;28;20024;-69
2022/04/15 04:17:38;;;;;;;11.30;7.03;;;11.00;95.10;;;;;;5052422;28;20044;-69
2022/04/15 04:20:05;;;;;;;14.80;7.78;;;11.10;95.40;;;;;;5052258;28;20441;-70
2022/04/15 04:22:33;;;;;;;9.43;6.35;;;11.00;95.30;;;;;;5052712;28;20025;-70
2022/04/15 04:24:59;;;;;;;11.85;6.95;;;11.10;95.20;;;;;;5052526;28;20111;-69
2022/04/15 04:27:25;;;;;;;13.10;6.68;;;11.10;95.10;;;;;;5052205;28;20112;-68
2022/04/15 04:29:51;;;;;;;8.93;6.18;;;11.00;95.20;;;;;;5052207;28;20025;-69
2022/04/15 04:32:19;;;;;;;11.88;6.75;;;11.00;95.50;;;;;;5052135;28;20029;-70
2022/04/15 04:34:45;;;;;;;10.13;5.75;;;11.10;95.30;;;;;;5051938;28;20021;-68
2022/04/15 04:37:11;;;;;;;7.82;5.55;;;11.20;95.40;;;;;;5052303;28;20106;-68
2022/04/15 04:39:36;;;;;;;10.85;6.03;;;11.20;95.40;;;;;;5051695;28;20037;-69
2022/04/15 04:42:03;;;;;;;9.40;5.50;;;11.10;95.60;;;;;;5051833;28;20465;-69
2022/04/15 04:44:29;;;;;;;14.07;5.60;;;11.10;95.60;;;;;;5052030;28;20037;-69
2022/04/15 04:46:56;;;;;;;9.68;5.72;;;11.00;95.80;;;;;;5051836;28;20028;-70
2022/04/15 04:49:22;;;;;;;11.32;5.05;;;11.10;95.80;;;;;;5052242;28;20056;-69
2022/04/15 04:51:48;;;;;;;7.28;5.00;;;11.20;95.60;;;;;;5051732;28;20124;-70
2022/04/15 04:54:14;;;;;;;7.45;4.95;;;11.20;95.60;;;;;;5051596;28;20429;-70
2022/04/15 04:56:40;;;;;;;10.27;4.97;;;11.30;95.70;;;;;;5050583;28;20079;-69
2022/04/15 04:59:05;;;;;;;8.05;5.07;;;11.20;95.60;;;;;;5051436;28;20032;-70
2022/04/15 05:01:31;;;;;;;7.22;4.60;;;11.20;95.50;;;;;;5052029;28;20025;-69
2022/04/15 05:03:56;;;;;;;12.18;5.13;;;11.00;95.80;;;;;;5051494;28;20025;-70
2022/04/15 05:06:22;;;;;;;8.63;4.28;;;11.00;96.10;;;;;;5051372;28;20575;-69
2022/04/15 05:08:47;;;;;;;12.02;5.28;;;11.10;96.00;;;;;;5051367;28;20111;-70
2022/04/15 05:11:13;;;;;;;9.70;4.72;;;11.20;96.10;;;;;;5051317;28;20040;-69
2022/04/15 05:13:38;;;;;;;6.20;4.10;;;11.20;95.90;;;;;;5051544;28;20029;-68
2022/04/15 05:16:07;;;;;;;7.47;4.82;;;11.20;95.90;;;;;;5049596;28;20363;-68
2022/04/15 05:18:34;;;;;;;6.82;4.35;;;11.30;95.90;;;;;;5051088;28;20068;-69
2022/04/15 05:20:59;;;;;;;10.48;5.13;;;11.30;95.90;;;;;;5051078;28;20037;-71
2022/04/15 05:23:25;;;;;;;8.50;4.85;;;11.30;95.80;;;;;;5051176;28;20434;-69
2022/04/15 05:25:50;;;;;;;11.23;5.18;;;11.30;95.80;;;;;;5051021;28;20048;-71
2022/04/15 05:28:16;;;;;;;9.25;5.47;;;11.30;95.90;;;;;;5051297;28;20512;-70
2022/04/15 05:30:41;;;;;;;8.60;5.15;;;11.20;96.20;;;;;;5051170;28;20025;-70
2022/04/15 05:33:07;;;;;;;7.75;5.65;;;11.20;96.40;;;;;;5050893;28;20466;-71
2022/04/15 05:35:32;;;;;;;8.07;5.43;;;11.20;97.00;;;;;;5050631;28;20063;-70
2022/04/15 05:37:58;;;;;;;8.23;5.53;;;11.20;97.20;;;;;;5049927;28;20037;-72
2022/04/15 05:40:27;;;;;;;11.68;6.13;;;11.30;97.00;;;;;;5050150;28;20021;-70
2022/04/15 05:42:52;;;;;;;11.85;5.60;;;11.30;97.40;;;;;;5050918;28;20064;-69
2022/04/15 05:45:18;;;;;;;11.02;6.40;;;11.30;97.50;;;;;;5051081;28;20057;-68
2022/04/15 05:47:44;;;;;;;11.13;7.18;;;11.30;97.40;;;;;;5050795;28;20075;-69
2022/04/15 05:50:10;;;;;;;11.18;6.95;;;11.30;97.50;;;;;;5050773;28;20473;-70
2022/04/15 05:52:35;;;;;;;13.05;7.40;;;11.10;97.30;;;;;;5051101;28;20071;-70
2022/04/15 05:55:01;;;;;;;10.35;6.43;;;11.10;97.20;;;;;;5050690;28;20021;-70
2022/04/15 05:57:27;;;;;;;10.98;6.93;;;11.30;97.00;;;;;;5050620;28;20021;-71
2022/04/15 05:59:52;;;;;;;12.80;7.43;;;11.30;96.80;;;;;;5050533;28;20040;-72
2022/04/15 06:02:18;;;;;;;12.25;6.57;;;11.30;96.60;;;;;;5050463;28;20040;-70
2022/04/15 06:04:43;;;;;;;13.20;7.03;;;11.30;96.50;;;;;;5050476;28;20025;-70
2022/04/15 06:07:09;;;;;;;10.25;7.25;;;11.20;96.30;;;;;;5050877;28;20446;-70
2022/04/15 06:09:34;;;;;;;11.07;7.63;;;10.90;96.60;;;;;;5050570;28;20029;-71
2022/04/15 06:12:00;;;;;;;13.90;7.55;;;11.10;96.70;;;;;;5050455;28;20355;-70
2022/04/15 06:14:27;;;;;;;14.68;7.50;;;11.20;96.50;;;;;;5050540;28;20495;-69
2022/04/15 06:16:55;;;;;;;13.47;7.07;;;11.20;96.40;;;;;;5050817;28;20064;-72
2022/04/15 06:19:22;;;;;;;12.20;6.78;;;11.20;96.10;;;;;;5050826;28;20029;-70
2022/04/15 06:21:47;;;;;;;15.25;7.13;;;11.20;95.80;;;;;;5050469;28;20075;-71
2022/04/15 06:24:13;;;;;;;8.80;6.30;;;11.30;95.60;;;;;;5050363;28;20041;-70
2022/04/15 06:26:38;;;;;;;9.35;6.28;;;11.30;95.40;;;;;;5050618;28;20067;-70
2022/04/15 06:29:04;;;;;;;8.40;5.85;;;11.10;95.40;;;;;;5054505;28;20040;-68
2022/04/15 06:31:30;;;;;;;9.43;5.85;;;11.30;95.40;;;;;;5054929;28;20017;-70
2022/04/15 06:33:56;;;;;;;9.57;5.90;;;11.40;95.10;;;;;;5054059;28;20462;-69
2022/04/15 06:36:22;;;;;;;8.95;5.63;;;11.50;94.80;;;;;;5053719;28;20075;-70
2022/04/15 06:38:48;;;;;;;14.57;6.20;;;11.50;94.60;;;;;;5054290;28;20474;-69
2022/04/15 06:41:13;;;;;;;9.50;5.32;;;11.50;94.50;;;;;;5054461;28;20044;-70
2022/04/15 06:43:39;;;;;;;10.05;5.47;;;11.60;94.50;;;;;;5054747;28;20036;-69
2022/04/15 06:46:11;;;;;;;9.45;5.05;;;11.60;94.30;;;;;;5053192;28;20111;-70
2022/04/15 06:48:37;;;;;;;10.05;5.00;;;11.70;94.20;;;;;;5054299;28;20506;-70
2022/04/15 06:51:08;;;;;;;11.25;4.60;;;11.80;94.10;;;;;;5054157;28;20047;-71
2022/04/15 06:53:34;;;;;;;7.55;4.85;;;11.70;93.80;;;;;;5054143;28;20025;-70
2022/04/15 06:56:00;;;;;;;6.85;4.18;;;11.70;94.00;;;;;;5053214;28;20592;-71
2022/04/15 06:58:26;;;;;;;6.28;4.38;;;11.80;94.00;;;;;;5054715;28;20052;-69
2022/04/15 07:00:52;;;;;;;7.10;4.15;;;11.90;93.80;;;;;;5053912;28;20047;-71
2022/04/15 07:03:18;;;;;;;11.27;4.35;;;11.80;93.70;;;;;;5054098;28;20212;-72
2022/04/15 07:05:44;;;;;;;4.97;3.33;;;11.90;93.80;;;;;;5053986;28;20560;-71
2022/04/15 07:08:11;;;;;;;6.68;4.03;;;11.90;93.70;;;;;;5053833;28;20056;-70
2022/04/15 07:10:38;;;;;;;7.88;4.13;;;11.70;93.70;;;;;;5053164;28;20025;-73
2022/04/15 07:13:04;;;;;;;7.22;4.32;;;11.70;93.90;;;;;;5053821;28;20048;-73
2022/04/15 07:15:30;;;;;;;7.57;4.05;;;11.80;94.10;;;;;;5052721;28;20029;-74
2022/04/15 07:18:00;;;;;;;8.05;3.75;;;11.90;93.80;;;;;;5053805;28;20029;-73
2022/04/15 07:20:25;;;;;;;5.40;3.70;;;12.10;93.80;;;;;;5053564;28;20045;-72
2022/04/15 07:22:58;;;;;;;6.65;3.67;;;12.20;93.60;;;;;;5053538;28;20017;-71
2022/04/15 07:25:25;;;;;;;8.52;3.88;;;12.20;93.30;;;;;;5053989;28;20116;-72
2022/04/15 07:27:51;;;;;;;6.53;2.83;;;12.00;93.60;;;;;;5053497;28;20039;-74
2022/04/15 07:30:17;;;;;;;5.63;3.17;;;12.40;93.40;;;;;;5052080;28;20033;-73
2022/04/15 07:32:44;;;;;;;6.47;3.35;;;12.50;93.10;;;;;;5052979;28;20021;-74
2022/04/15 07:35:10;;;;;;;6.43;3.08;;;12.60;93.10;;;;;;5053018;28;20040;-72
2022/04/15 07:37:35;;;;;;;7.70;3.67;;;12.80;93.10;;;;;;5053096;28;20133;-74
2022/04/15 07:40:01;;;;;;;6.15;3.92;;;12.70;92.80;;;;;;5052776;28;20440;-75
2022/04/15 07:42:27;;;;;;;8.07;3.88;;;12.80;93.00;;;;;;5052916;28;20033;-74
2022/04/15 07:44:53;;;;;;;5.35;3.20;;;12.70;92.80;;;;;;5052816;28;20033;-73
2022/04/15 07:47:18;;;;;;;6.43;3.30;;;12.70;92.90;;;;;;5052845;28;20318;-73
2022/04/15 07:49:44;;;;;;;5.35;3.58;;;12.90;92.90;;;;;;5052813;28;20082;-71
2022/04/15 07:52:09;;;;;;;9.93;4.05;;;13.10;92.60;;;;;;5053083;28;20099;-71
2022/04/15 07:54:35;;;;;;;6.57;3.58;;;13.20;92.50;;;;;;5052674;28;20454;-72
2022/04/15 07:57:01;;;;;;;11.95;3.88;;;13.30;92.20;;;;;;5052747;28;20033;-72
2022/04/15 07:59:27;;;;;;;5.97;3.78;;;13.40;92.20;;;;;;5052432;28;20416;-72
2022/04/15 08:01:53;;;;;;;8.85;4.43;;;13.40;92.10;;;;;;5053104;28;20545;-70
2022/04/15 08:04:20;;;;;;;9.95;4.25;;;13.40;92.10;;;;;;5052172;28;20080;-70
2022/04/15 08:06:46;;;;;;;7.20;4.45;;;13.30;92.10;;;;;;5052490;28;20029;-71
2022/04/15 08:09:11;;;;;;;5.40;4.18;;;13.30;92.30;;;;;;5052370;28;20051;-71
2022/04/15 08:11:37;;;;;;;8.30;4.53;;;13.20;92.20;;;;;;5051274;28;20025;-70
2022/04/15 08:14:02;;;;;;;9.05;4.60;;;13.20;92.40;;;;;;5052411;28;23795;-72
2022/04/15 08:16:28;;;;;;;7.28;4.78;;;13.20;92.40;;;;;;5052773;28;20103;-70
2022/04/15 08:18:56;;;;;;;9.13;4.65;;;13.20;92.30;;;;;;5052341;28;20033;-72
2022/04/15 08:21:22;;;;;;;7.13;4.72;;;13.30;92.10;;;;;;5052251;28;20033;-72
2022/04/15 08:23:48;;;;;;;6.82;5.22;;;13.20;92.30;;;;;;5052071;28;20055;-71
2022/04/15 08:26:14;;;;;;;10.13;4.90;;;13.40;92.30;;;;;;5052008;28;20358;-71
2022/04/15 08:28:40;;;;;;;8.02;4.38;;;13.40;92.10;;;;;;5052471;28;20052;-72
2022/04/15 08:31:08;;;;;;;9.35;5.20;;;13.40;92.00;;;;;;5052002;28;20040;-72
2022/04/15 08:33:37;;;;;;;9.23;5.32;;;13.50;91.90;;;;;;5050914;28;20029;-74
2022/04/15 08:36:09;;;;;;;8.82;5.18;;;13.50;92.00;;;;;;5051561;28;20091;-75
2022/04/15 08:38:34;;;;;;;11.45;5.25;;;13.50;91.90;;;;;;5051858;28;20033;-76
2022/04/15 08:41:01;;;;;;;8.55;5.18;;;13.50;91.90;;;;;;5051853;28;20355;-74
2022/04/15 08:43:29;;;;;;;10.70;6.32;;;13.40;92.30;;;;;;5051127;28;20025;-75
2022/04/15 08:45:55;;;;;;;7.10;4.63;;;13.40;92.10;;;;;;5051612;28;20033;-76
2022/04/15 08:48:21;;;;;;;7.57;5.28;;;13.40;92.10;;;;;;5051345;28;20198;-75
2022/04/15 08:50:47;;;;;;;9.05;5.75;;;13.30;92.20;;;;;;5049562;28;20029;-76
2022/04/15 08:53:14;;;;;;;11.90;6.47;;;13.30;92.20;;;;;;5051509;28;20095;-76
2022/04/15 08:55:40;;;;;;;11.23;5.97;;;13.50;92.40;;;;;;5052319;28;20036;-75
2022/04/15 08:58:05;;;;;;;8.48;5.53;;;13.60;92.10;;;;;;5051317;28;20113;-76
2022/04/15 09:00:32;;;;;;;8.80;5.28;;;13.60;92.10;;;;;;5051073;28;20021;-76
2022/04/15 09:02:57;;;;;;;9.73;5.95;;;13.60;92.10;;;;;;5051193;28;20082;-76
2022/04/15 09:05:28;;;;;;;13.52;6.22;;;13.50;92.30;;;;;;5050233;28;20120;-75
2022/04/15 09:08:04;;;;;;;12.00;5.63;;;13.50;92.20;;;;;;5051188;28;20032;-72
2022/04/15 09:10:33;;;;;;;10.00;6.18;;;13.50;92.40;;;;;;5052341;28;20074;-73
2022/04/15 09:12:59;;;;;;;8.88;5.70;;;13.70;92.30;;;;;;5051212;28;20136;-73
2022/04/15 09:15:25;;;;;;;12.75;5.95;;;13.80;92.20;;;;;;5050047;28;20429;-75
2022/04/15 09:17:52;;;;;;;10.73;6.10;;;13.80;92.10;;;;;;5050965;28;20025;-74
2022/04/15 09:20:19;;;;;;;12.43;6.75;;;14.00;92.10;;;;;;5051053;28;20063;-73
2022/04/15 09:22:46;;;;;;;12.43;6.30;;;14.10;92.00;;;;;;5050966;28;20641;-73
2022/04/15 09:25:12;;;;;;;9.63;6.28;;;14.10;91.80;;;;;;5051378;28;20021;-73
2022/04/15 09:27:40;;;;;;;10.68;6.00;;;14.10;92.00;;;;;;5051054;28;20032;-74
2022/04/15 09:30:07;;;;;;;10.20;6.05;;;14.00;91.60;;;;;;5050919;28;20025;-73
2022/04/15 09:32:32;;;;;;;15.35;7.30;;;14.00;91.80;;;;;;5050849;28;20025;-73
2022/04/15 09:35:06;;;;;;;12.50;6.88;;;14.00;91.90;;;;;;5050739;28;20025;-72
2022/04/15 09:37:35;;;;;;;10.48;6.32;;;14.00;91.70;;;;;;5050977;28;20106;-73
2022/04/15 09:40:18;;;;;;;14.95;7.25;;;14.10;92.00;;;;;;5050648;28;20122;-73
2022/04/15 09:42:54;;;;;;;14.75;7.20;;;14.10;91.80;;;;;;5050680;28;20054;-74
2022/04/15 09:45:22;;;;;;;17.65;7.80;;;14.00;91.80;;;;;;5050622;28;20032;-72
2022/04/15 09:47:55;;;;;;;11.70;6.78;;;14.00;92.10;;;;;;5050610;28;20037;-73
2022/04/15 09:50:37;;;;;;;11.45;7.03;;;14.00;91.80;;;;;;5050820;28;20043;-74
2022/04/15 09:53:19;;;;;;;10.43;6.00;;;14.30;91.60;;;;;;5050496;28;20016;-73
2022/04/15 09:55:48;;;;;;;14.98;7.43;;;14.30;91.40;;;;;;5050334;28;20239;-72
2022/04/15 09:58:28;;;;;;;12.60;6.30;;;14.50;91.20;;;;;;5051101;28;20029;-71
2022/04/15 10:00:56;;;;;;;12.90;6.65;;;14.80;90.90;;;;;;5050632;28;20523;-74
2022/04/15 10:03:26;;;;;;;10.30;6.20;;;14.70;90.80;;;;;;5055714;28;20517;-72
2022/04/15 10:05:54;;;;;;;12.50;5.95;;;14.80;90.90;;;;;;5056112;28;20039;-72
2022/04/15 10:08:25;;;;;;;12.05;6.75;;;14.60;91.00;;;;;;5057111;28;20044;-73
2022/04/15 10:10:51;;;;;;;10.63;6.28;;;14.60;90.90;;;;;;5057394;28;20024;-71
2022/04/15 10:13:17;;;;;;;10.57;6.45;;;14.60;90.90;;;;;;5057404;28;20664;-71
2022/04/15 10:15:45;;;;;;;10.45;6.18;;;14.50;90.90;;;;;;5057077;28;20109;-72
2022/04/15 10:18:11;;;;;;;9.07;5.78;;;14.30;90.90;;;;;;5057020;28;20033;-72
2022/04/15 10:20:38;;;;;;;11.98;5.88;;;14.20;91.10;;;;;;5057184;28;20047;-75
2022/04/15 10:23:09;;;;;;;10.77;5.28;;;14.10;91.10;;;;;;5053989;28;20052;-74
2022/04/15 10:25:36;;;;;;;11.45;5.50;;;14.10;91.20;;;;;;5057584;28;20162;-74
2022/04/15 10:28:11;;;;;;;12.13;6.57;;;14.10;91.40;;;;;;5057303;28;20106;-75
2022/04/15 10:30:38;;;;;;;11.95;5.43;;;14.10;91.40;;;;;;5057106;28;20033;-72
2022/04/15 10:33:04;;;;;;;13.23;5.75;;;14.00;91.40;;;;;;5057362;28;20029;-75
2022/04/15 10:35:32;;;;;;;17.15;6.20;;;13.90;91.80;;;;;;5057110;28;20033;-74
2022/04/15 10:38:08;;;;;;;11.73;6.03;;;14.00;91.60;;;;;;5057358;28;20033;-72
2022/04/15 10:40:35;;;;;;;13.35;6.35;;;14.00;91.50;;;;;;5057625;28;20387;-72
2022/04/15 10:43:19;;;;;;;13.77;6.20;;;14.20;91.50;;;;;;5057129;28;20029;-75
2022/04/15 10:45:45;;;;;;;13.40;6.93;;;14.20;91.40;;;;;;5056970;28;20021;-73
2022/04/15 10:48:10;;;;;;;16.08;6.95;;;14.10;91.50;;;;;;5056045;28;20033;-74
2022/04/15 10:50:39;;;;;;;14.82;6.68;;;14.20;91.40;;;;;;5056803;28;20454;-76
2022/04/15 10:53:22;;;;;;;23.42;7.78;;;14.20;91.50;;;;;;5057148;28;20040;-73
2022/04/15 10:55:54;;;;;;;13.82;7.30;;;14.20;91.60;;;;;;5055994;28;20039;-75
2022/04/15 10:58:21;;;;;;;13.55;7.05;;;14.20;91.40;;;;;;5056240;28;20032;-75
2022/04/15 11:01:18;;;;;;;14.52;7.68;;;14.10;91.50;;;;;;5056997;28;20025;-75
2022/04/15 11:03:53;;;;;;;15.93;8.48;;;14.10;91.60;;;;;;5056856;28;20495;-75
2022/04/15 11:06:26;;;;;;;20.15;8.70;;;13.90;91.60;;;;;;5056585;28;20036;-76
2022/04/15 11:08:52;;;;;;;18.33;8.57;;;13.70;92.00;;;;;;5055454;28;20036;-76
2022/04/15 11:11:32;;;;;;;18.58;10.30;;;13.70;92.10;;;;;;5056817;28;20040;-74
2022/04/15 11:14:00;;;;;;;17.67;9.80;;;13.70;92.20;;;;;;5053457;28;20553;-77
2022/04/15 11:16:47;;;;;;;19.23;9.68;;;13.70;92.20;;;;;;5054225;28;20029;-78
2022/04/15 11:19:18;;;;;;;23.95;11.02;;;14.00;92.40;;;;;;5052611;28;20044;-76
2022/04/15 11:21:50;;;;;;;20.15;10.57;;;14.30;92.20;;;;;;5053292;28;20037;-76
2022/04/15 11:24:25;;;;;;;21.45;10.98;;;14.60;92.10;;;;;;5052314;28;20033;-78
2022/04/15 11:27:01;;;;;;;23.20;11.57;;;15.00;91.70;;;;;;5053661;28;20036;-76
2022/04/15 11:29:35;;;;;;;22.75;11.77;;;15.00;91.50;;;;;;5053510;28;20029;-76
2022/04/15 11:32:05;;;;;;;20.58;11.68;;;15.10;91.30;;;;;;5052585;28;20025;-76
2022/04/15 11:34:33;;;;;;;22.30;11.15;;;15.30;91.20;;;;;;5053683;28;20017;-75
2022/04/15 11:37:04;;;;;;;19.97;10.23;;;15.30;91.00;;;;;;5051675;28;20063;-75
2022/04/15 11:39:30;;;;;;;18.83;10.80;;;15.30;91.00;;;;;;5052074;28;20037;-76
2022/04/15 11:41:59;;;;;;;14.63;9.43;;;15.20;90.90;;;;;;5053028;28;20442;-75
2022/04/15 11:44:30;;;;;;;17.15;10.65;;;15.10;91.00;;;;;;5052987;28;20033;-75
2022/04/15 11:47:15;;;;;;;20.73;10.10;;;15.10;91.10;;;;;;5052697;28;20037;-75
2022/04/15 11:49:42;;;;;;;14.80;8.05;;;14.90;91.00;;;;;;5053191;28;20048;-76
2022/04/15 11:52:09;;;;;;;14.65;8.32;;;14.90;91.30;;;;;;5052873;28;20621;-76
2022/04/15 11:54:39;;;;;;;14.82;8.63;;;14.70;91.00;;;;;;5051664;28;20030;-76
2022/04/15 11:57:06;;;;;;;17.83;8.15;;;14.40;91.40;;;;;;5052752;28;20059;-76
2022/04/15 11:59:39;;;;;;;16.85;8.68;;;14.30;91.50;;;;;;5051493;28;20029;-76
2022/04/15 12:02:05;;;;;;;14.23;9.00;;;14.30;91.40;;;;;;5051598;28;20033;-76
2022/04/15 12:04:31;;;;;;;17.70;8.80;;;14.20;91.50;;;;;;5051996;28;20098;-79
2022/04/15 12:06:57;;;;;;;18.35;9.32;;;14.00;91.60;;;;;;5052532;28;20115;-75
2022/04/15 12:09:24;;;;;;;19.00;9.50;;;14.00;91.60;;;;;;5051215;28;20113;-74
2022/04/15 12:11:51;;;;;;;17.88;10.32;;;14.00;91.70;;;;;;5052315;28;20053;-74
2022/04/15 12:14:17;;;;;;;18.50;9.82;;;13.90;91.60;;;;;;5051251;28;20029;-74
2022/04/15 12:17:05;;;;;;;20.92;10.68;;;14.00;91.60;;;;;;5052705;28;20414;-74
2022/04/15 12:19:31;;;;;;;18.25;10.13;;;14.00;91.50;;;;;;5051136;28;20029;-74
2022/04/15 12:21:59;;;;;;;19.75;10.65;;;13.80;91.60;;;;;;5052299;28;20030;-75
2022/04/15 12:24:30;;;;;;;19.20;10.10;;;13.80;91.70;;;;;;5051994;28;20486;-71
2022/04/15 12:26:56;;;;;;;21.65;10.40;;;13.90;91.60;;;;;;5052146;28;20035;-74
2022/04/15 12:32:39;;;;;;;18.35;9.95;;;14.00;91.50;;;;;;5052307;28;20170;-78
2022/04/15 12:35:09;;;;;;;18.23;10.07;;;14.00;91.50;;;;;;5048180;28;20579;-74
2022/04/15 12:37:57;;;;;;;21.35;11.77;;;14.10;91.60;;;;;;5052009;28;20413;-73
2022/04/15 12:40:24;;;;;;;20.88;10.43;;;14.00;91.50;;;;;;5051950;28;20466;-75
2022/04/15 12:42:53;;;;;;;17.30;9.63;;;14.10;92.00;;;;;;5051706;28;20033;-71